sensor_id;sensor_type;location;lat;lon;timestamp;P1;durP1;ratioP1;P2;durP2;ratioP2
3050;SDS011;1535;51.098;6.414;2022-11-25T00:01:37;15.80;;;9.90;;
3050;SDS011;1535;51.098;6.414;2022-11-25T00:04:04;15.30;;;11.10;;
3050;SDS011;1535;51.098;6.414;2022-11-25T00:06:31;26.40;;;10.53;;
3050;SDS011;1535;51.098;6.414;2022-11-25T00:09:00;14.20;;;9.57;;
3050;SDS011;1535;51.098;6.414;2022-11-25T00:11:29;14.53;;;9.90;;
3050;SDS011;1535;51.098;6.414;2022-11-25T00:13:57;19.23;;;9.77;;
3050;SDS011;1535;51.098;6.414;2022-11-25T00:16:25;16.27;;;9.27;;
3050;SDS011;1535;51.098;6.414;2022-11-25T00:18:52;19.03;;;9.83;;
3050;SDS011;1535;51.098;6.414;2022-11-25T00:21:22;17.20;;;9.70;;
3050;SDS011;1535;51.098;6.414;2022-11-25T00:23:50;17.00;;;9.13;;
3050;SDS011;1535;51.098;6.414;2022-11-25T00:26:17;22.77;;;9.77;;
3050;SDS011;1535;51.098;6.414;2022-11-25T00:28:45;15.27;;;8.30;;
3050;SDS011;1535;51.098;6.414;2022-11-25T00:31:13;13.60;;;8.40;;
3050;SDS011;1535;51.098;6.414;2022-11-25T00:33:43;13.80;;;8.90;;
3050;SDS011;1535;51.098;6.414;2022-11-25T00:36:13;17.90;;;8.70;;
3050;SDS011;1535;51.098;6.414;2022-11-25T00:38:42;11.10;;;8.53;;
3050;SDS011;1535;51.098;6.414;2022-11-25T00:41:09;23.33;;;9.70;;
3050;SDS011;1535;51.098;6.414;2022-11-25T00:43:54;16.53;;;8.57;;
3050;SDS011;1535;51.098;6.414;2022-11-25T00:46:38;10.67;;;7.87;;
3050;SDS011;1535;51.098;6.414;2022-11-25T00:49:07;11.23;;;7.20;;
3050;SDS011;1535;51.098;6.414;2022-11-25T00:51:34;9.23;;;7.70;;
3050;SDS011;1535;51.098;6.414;2022-11-25T00:54:01;15.13;;;8.00;;
3050;SDS011;1535;51.098;6.414;2022-11-25T00:56:28;19.13;;;8.20;;
3050;SDS011;1535;51.098;6.414;2022-11-25T00:58:55;22.67;;;8.53;;
3050;SDS011;1535;51.098;6.414;2022-11-25T01:01:22;13.67;;;8.33;;
3050;SDS011;1535;51.098;6.414;2022-11-25T01:03:49;24.87;;;8.13;;
3050;SDS011;1535;51.098;6.414;2022-11-25T01:06:18;14.70;;;8.37;;
3050;SDS011;1535;51.098;6.414;2022-11-25T01:08:45;13.27;;;7.80;;
3050;SDS011;1535;51.098;6.414;2022-11-25T01:11:13;12.87;;;7.90;;
3050;SDS011;1535;51.098;6.414;2022-11-25T01:13:42;15.23;;;8.13;;
3050;SDS011;1535;51.098;6.414;2022-11-25T01:16:10;17.87;;;8.67;;
3050;SDS011;1535;51.098;6.414;2022-11-25T01:18:39;19.87;;;8.43;;
3050;SDS011;1535;51.098;6.414;2022-11-25T01:21:06;15.60;;;8.20;;
3050;SDS011;1535;51.098;6.414;2022-11-25T01:23:35;15.30;;;7.50;;
3050;SDS011;1535;51.098;6.414;2022-11-25T01:26:04;16.07;;;8.20;;
3050;SDS011;1535;51.098;6.414;2022-11-25T01:28:32;14.33;;;9.60;;
3050;SDS011;1535;51.098;6.414;2022-11-25T01:30:59;13.50;;;7.10;;
3050;SDS011;1535;51.098;6.414;2022-11-25T01:33:27;16.40;;;8.20;;
3050;SDS011;1535;51.098;6.414;2022-11-25T01:35:56;11.43;;;7.90;;
3050;SDS011;1535;51.098;6.414;2022-11-25T01:38:26;14.07;;;7.60;;
3050;SDS011;1535;51.098;6.414;2022-11-25T01:40:55;11.70;;;7.90;;
3050;SDS011;1535;51.098;6.414;2022-11-25T01:43:22;14.63;;;8.70;;
3050;SDS011;1535;51.098;6.414;2022-11-25T01:45:49;15.37;;;8.07;;
3050;SDS011;1535;51.098;6.414;2022-11-25T01:48:17;16.83;;;8.53;;
3050;SDS011;1535;51.098;6.414;2022-11-25T01:50:49;15.70;;;8.17;;
3050;SDS011;1535;51.098;6.414;2022-11-25T01:53:17;16.37;;;9.10;;
3050;SDS011;1535;51.098;6.414;2022-11-25T01:55:47;11.63;;;8.40;;
3050;SDS011;1535;51.098;6.414;2022-11-25T01:58:19;19.43;;;8.40;;
3050;SDS011;1535;51.098;6.414;2022-11-25T02:00:51;14.43;;;7.90;;
3050;SDS011;1535;51.098;6.414;2022-11-25T02:03:18;11.93;;;8.47;;
3050;SDS011;1535;51.098;6.414;2022-11-25T02:05:48;16.63;;;8.77;;
3050;SDS011;1535;51.098;6.414;2022-11-25T02:08:19;14.03;;;8.10;;
3050;SDS011;1535;51.098;6.414;2022-11-25T02:10:48;13.20;;;8.60;;
3050;SDS011;1535;51.098;6.414;2022-11-25T02:13:20;14.00;;;8.40;;
3050;SDS011;1535;51.098;6.414;2022-11-25T02:15:48;17.37;;;10.07;;
3050;SDS011;1535;51.098;6.414;2022-11-25T02:18:15;17.60;;;8.10;;
3050;SDS011;1535;51.098;6.414;2022-11-25T02:20:42;24.83;;;9.60;;
3050;SDS011;1535;51.098;6.414;2022-11-25T02:23:11;20.40;;;9.13;;
3050;SDS011;1535;51.098;6.414;2022-11-25T02:25:50;15.17;;;9.00;;
3050;SDS011;1535;51.098;6.414;2022-11-25T02:28:19;19.87;;;8.90;;
3050;SDS011;1535;51.098;6.414;2022-11-25T02:30:48;19.70;;;10.13;;
3050;SDS011;1535;51.098;6.414;2022-11-25T02:33:16;13.53;;;8.40;;
3050;SDS011;1535;51.098;6.414;2022-11-25T02:35:45;9.30;;;7.80;;
3050;SDS011;1535;51.098;6.414;2022-11-25T02:38:14;13.20;;;9.77;;
3050;SDS011;1535;51.098;6.414;2022-11-25T02:40:44;19.43;;;10.07;;
3050;SDS011;1535;51.098;6.414;2022-11-25T02:43:15;23.50;;;9.50;;
3050;SDS011;1535;51.098;6.414;2022-11-25T02:45:50;15.07;;;9.37;;
3050;SDS011;1535;51.098;6.414;2022-11-25T02:48:21;20.83;;;10.00;;
3050;SDS011;1535;51.098;6.414;2022-11-25T02:50:50;12.53;;;8.83;;
3050;SDS011;1535;51.098;6.414;2022-11-25T02:53:19;10.60;;;9.20;;
3050;SDS011;1535;51.098;6.414;2022-11-25T02:55:47;12.73;;;9.70;;
3050;SDS011;1535;51.098;6.414;2022-11-25T02:58:16;14.73;;;10.90;;
3050;SDS011;1535;51.098;6.414;2022-11-25T03:00:44;20.57;;;10.23;;
3050;SDS011;1535;51.098;6.414;2022-11-25T03:03:12;15.60;;;9.30;;
3050;SDS011;1535;51.098;6.414;2022-11-25T03:05:40;12.67;;;8.90;;
3050;SDS011;1535;51.098;6.414;2022-11-25T03:08:07;18.40;;;8.77;;
3050;SDS011;1535;51.098;6.414;2022-11-25T03:10:34;15.10;;;9.57;;
3050;SDS011;1535;51.098;6.414;2022-11-25T03:13:02;18.83;;;11.87;;
3050;SDS011;1535;51.098;6.414;2022-11-25T03:15:31;25.33;;;12.77;;
3050;SDS011;1535;51.098;6.414;2022-11-25T03:17:58;22.53;;;15.63;;
3050;SDS011;1535;51.098;6.414;2022-11-25T03:20:26;23.40;;;19.10;;
3050;SDS011;1535;51.098;6.414;2022-11-25T03:22:53;20.90;;;19.20;;
3050;SDS011;1535;51.098;6.414;2022-11-25T03:25:20;22.70;;;18.40;;
3050;SDS011;1535;51.098;6.414;2022-11-25T03:27:47;28.63;;;19.83;;
3050;SDS011;1535;51.098;6.414;2022-11-25T03:30:15;23.30;;;19.20;;
3050;SDS011;1535;51.098;6.414;2022-11-25T03:32:45;26.50;;;18.80;;
3050;SDS011;1535;51.098;6.414;2022-11-25T03:35:12;21.43;;;19.40;;
3050;SDS011;1535;51.098;6.414;2022-11-25T03:37:41;24.00;;;20.17;;
3050;SDS011;1535;51.098;6.414;2022-11-25T03:40:09;21.63;;;19.03;;
3050;SDS011;1535;51.098;6.414;2022-11-25T03:42:38;30.30;;;19.60;;
3050;SDS011;1535;51.098;6.414;2022-11-25T03:45:05;27.90;;;24.90;;
3050;SDS011;1535;51.098;6.414;2022-11-25T03:47:34;33.07;;;24.77;;
3050;SDS011;1535;51.098;6.414;2022-11-25T03:50:03;28.93;;;25.50;;
3050;SDS011;1535;51.098;6.414;2022-11-25T03:52:30;31.10;;;24.77;;
3050;SDS011;1535;51.098;6.414;2022-11-25T03:54:57;27.67;;;25.07;;
3050;SDS011;1535;51.098;6.414;2022-11-25T03:57:24;26.90;;;24.07;;
3050;SDS011;1535;51.098;6.414;2022-11-25T03:59:51;25.00;;;23.07;;
3050;SDS011;1535;51.098;6.414;2022-11-25T04:02:18;26.90;;;24.03;;
3050;SDS011;1535;51.098;6.414;2022-11-25T04:04:45;25.77;;;23.37;;
3050;SDS011;1535;51.098;6.414;2022-11-25T04:07:14;25.37;;;23.23;;
3050;SDS011;1535;51.098;6.414;2022-11-25T04:09:41;24.93;;;22.43;;
3050;SDS011;1535;51.098;6.414;2022-11-25T04:12:09;25.00;;;22.27;;
3050;SDS011;1535;51.098;6.414;2022-11-25T04:14:54;26.17;;;23.47;;
3050;SDS011;1535;51.098;6.414;2022-11-25T04:17:21;24.50;;;22.23;;
3050;SDS011;1535;51.098;6.414;2022-11-25T04:19:48;25.67;;;21.37;;
3050;SDS011;1535;51.098;6.414;2022-11-25T04:22:16;26.13;;;21.43;;
3050;SDS011;1535;51.098;6.414;2022-11-25T04:24:43;28.03;;;22.40;;
3050;SDS011;1535;51.098;6.414;2022-11-25T04:27:10;24.97;;;22.23;;
3050;SDS011;1535;51.098;6.414;2022-11-25T04:29:36;32.33;;;22.60;;
3050;SDS011;1535;51.098;6.414;2022-11-25T04:32:04;25.90;;;23.20;;
3050;SDS011;1535;51.098;6.414;2022-11-25T04:34:31;29.93;;;22.07;;
3050;SDS011;1535;51.098;6.414;2022-11-25T04:36:58;33.07;;;22.00;;
3050;SDS011;1535;51.098;6.414;2022-11-25T04:39:27;28.67;;;21.00;;
3050;SDS011;1535;51.098;6.414;2022-11-25T04:41:54;22.23;;;20.40;;
3050;SDS011;1535;51.098;6.414;2022-11-25T04:44:52;22.60;;;20.27;;
3050;SDS011;1535;51.098;6.414;2022-11-25T04:47:19;26.13;;;18.90;;
3050;SDS011;1535;51.098;6.414;2022-11-25T04:49:46;20.83;;;18.70;;
3050;SDS011;1535;51.098;6.414;2022-11-25T04:52:13;22.53;;;19.50;;
3050;SDS011;1535;51.098;6.414;2022-11-25T04:54:41;22.03;;;20.10;;
3050;SDS011;1535;51.098;6.414;2022-11-25T04:57:09;21.70;;;19.07;;
3050;SDS011;1535;51.098;6.414;2022-11-25T04:59:38;22.03;;;20.07;;
3050;SDS011;1535;51.098;6.414;2022-11-25T05:02:04;37.40;;;19.70;;
3050;SDS011;1535;51.098;6.414;2022-11-25T05:04:31;20.20;;;18.50;;
3050;SDS011;1535;51.098;6.414;2022-11-25T05:06:58;19.53;;;17.77;;
3050;SDS011;1535;51.098;6.414;2022-11-25T05:09:25;20.73;;;18.60;;
3050;SDS011;1535;51.098;6.414;2022-11-25T05:11:55;19.33;;;17.90;;
3050;SDS011;1535;51.098;6.414;2022-11-25T05:14:22;20.17;;;18.27;;
3050;SDS011;1535;51.098;6.414;2022-11-25T05:16:49;22.17;;;19.27;;
3050;SDS011;1535;51.098;6.414;2022-11-25T05:19:16;23.20;;;19.00;;
3050;SDS011;1535;51.098;6.414;2022-11-25T05:21:43;21.33;;;19.30;;
3050;SDS011;1535;51.098;6.414;2022-11-25T05:24:10;21.03;;;18.87;;
3050;SDS011;1535;51.098;6.414;2022-11-25T05:26:37;21.20;;;19.43;;
3050;SDS011;1535;51.098;6.414;2022-11-25T05:29:05;21.23;;;19.33;;
3050;SDS011;1535;51.098;6.414;2022-11-25T05:31:32;24.93;;;19.80;;
3050;SDS011;1535;51.098;6.414;2022-11-25T05:33:59;21.50;;;19.40;;
3050;SDS011;1535;51.098;6.414;2022-11-25T05:36:26;21.23;;;19.53;;
3050;SDS011;1535;51.098;6.414;2022-11-25T05:38:54;23.43;;;21.23;;
3050;SDS011;1535;51.098;6.414;2022-11-25T05:41:22;22.83;;;20.77;;
3050;SDS011;1535;51.098;6.414;2022-11-25T05:43:49;21.50;;;19.80;;
3050;SDS011;1535;51.098;6.414;2022-11-25T05:46:18;22.20;;;20.07;;
3050;SDS011;1535;51.098;6.414;2022-11-25T05:48:46;22.03;;;19.13;;
3050;SDS011;1535;51.098;6.414;2022-11-25T05:51:13;23.47;;;21.50;;
3050;SDS011;1535;51.098;6.414;2022-11-25T05:53:40;22.90;;;20.13;;
3050;SDS011;1535;51.098;6.414;2022-11-25T05:56:08;23.60;;;21.17;;
3050;SDS011;1535;51.098;6.414;2022-11-25T05:58:35;22.93;;;20.73;;
3050;SDS011;1535;51.098;6.414;2022-11-25T06:01:05;23.90;;;21.60;;
3050;SDS011;1535;51.098;6.414;2022-11-25T06:03:34;24.07;;;21.60;;
3050;SDS011;1535;51.098;6.414;2022-11-25T06:06:02;24.23;;;21.80;;
3050;SDS011;1535;51.098;6.414;2022-11-25T06:08:30;24.93;;;22.47;;
3050;SDS011;1535;51.098;6.414;2022-11-25T06:10:57;24.67;;;22.17;;
3050;SDS011;1535;51.098;6.414;2022-11-25T06:13:24;24.20;;;22.20;;
3050;SDS011;1535;51.098;6.414;2022-11-25T06:15:51;24.43;;;22.23;;
3050;SDS011;1535;51.098;6.414;2022-11-25T06:18:18;24.83;;;22.23;;
3050;SDS011;1535;51.098;6.414;2022-11-25T06:20:54;29.87;;;22.43;;
3050;SDS011;1535;51.098;6.414;2022-11-25T06:23:21;24.43;;;22.23;;
3050;SDS011;1535;51.098;6.414;2022-11-25T06:25:49;25.97;;;23.40;;
3050;SDS011;1535;51.098;6.414;2022-11-25T06:28:15;25.00;;;22.50;;
3050;SDS011;1535;51.098;6.414;2022-11-25T06:30:42;24.73;;;22.57;;
3050;SDS011;1535;51.098;6.414;2022-11-25T06:33:09;22.93;;;20.93;;
3050;SDS011;1535;51.098;6.414;2022-11-25T06:35:36;25.20;;;22.83;;
3050;SDS011;1535;51.098;6.414;2022-11-25T06:38:05;24.17;;;21.90;;
3050;SDS011;1535;51.098;6.414;2022-11-25T06:40:32;28.67;;;24.40;;
3050;SDS011;1535;51.098;6.414;2022-11-25T06:42:59;24.27;;;21.50;;
3050;SDS011;1535;51.098;6.414;2022-11-25T06:45:26;22.33;;;20.33;;
3050;SDS011;1535;51.098;6.414;2022-11-25T06:47:52;23.57;;;21.40;;
3050;SDS011;1535;51.098;6.414;2022-11-25T06:50:19;23.20;;;20.83;;
3050;SDS011;1535;51.098;6.414;2022-11-25T06:52:46;22.63;;;21.10;;
3050;SDS011;1535;51.098;6.414;2022-11-25T06:55:14;22.60;;;20.60;;
3050;SDS011;1535;51.098;6.414;2022-11-25T06:57:41;21.03;;;19.63;;
3050;SDS011;1535;51.098;6.414;2022-11-25T07:00:08;21.53;;;19.93;;
3050;SDS011;1535;51.098;6.414;2022-11-25T07:02:36;22.30;;;20.33;;
3050;SDS011;1535;51.098;6.414;2022-11-25T07:05:02;22.07;;;20.10;;
3050;SDS011;1535;51.098;6.414;2022-11-25T07:07:29;20.77;;;19.40;;
3050;SDS011;1535;51.098;6.414;2022-11-25T07:09:56;22.33;;;20.47;;
3050;SDS011;1535;51.098;6.414;2022-11-25T07:12:24;23.50;;;21.67;;
3050;SDS011;1535;51.098;6.414;2022-11-25T07:14:53;24.33;;;22.43;;
3050;SDS011;1535;51.098;6.414;2022-11-25T07:17:20;23.67;;;21.30;;
3050;SDS011;1535;51.098;6.414;2022-11-25T07:19:47;23.27;;;21.60;;
3050;SDS011;1535;51.098;6.414;2022-11-25T07:22:13;22.17;;;20.40;;
3050;SDS011;1535;51.098;6.414;2022-11-25T07:24:40;23.40;;;19.87;;
3050;SDS011;1535;51.098;6.414;2022-11-25T07:27:07;20.90;;;19.50;;
3050;SDS011;1535;51.098;6.414;2022-11-25T07:29:35;20.67;;;19.30;;
3050;SDS011;1535;51.098;6.414;2022-11-25T07:32:02;21.57;;;19.93;;
3050;SDS011;1535;51.098;6.414;2022-11-25T07:34:30;21.20;;;19.70;;
3050;SDS011;1535;51.098;6.414;2022-11-25T07:36:57;22.03;;;20.37;;
3050;SDS011;1535;51.098;6.414;2022-11-25T07:39:24;23.53;;;21.50;;
3050;SDS011;1535;51.098;6.414;2022-11-25T07:41:52;23.80;;;20.90;;
3050;SDS011;1535;51.098;6.414;2022-11-25T07:44:19;22.30;;;20.40;;
3050;SDS011;1535;51.098;6.414;2022-11-25T07:46:48;21.97;;;19.80;;
3050;SDS011;1535;51.098;6.414;2022-11-25T07:49:16;22.53;;;20.50;;
3050;SDS011;1535;51.098;6.414;2022-11-25T07:51:46;21.83;;;19.87;;
3050;SDS011;1535;51.098;6.414;2022-11-25T07:54:14;22.87;;;20.93;;
3050;SDS011;1535;51.098;6.414;2022-11-25T07:56:42;23.07;;;20.93;;
3050;SDS011;1535;51.098;6.414;2022-11-25T07:59:10;22.50;;;20.40;;
3050;SDS011;1535;51.098;6.414;2022-11-25T08:01:38;23.30;;;20.63;;
3050;SDS011;1535;51.098;6.414;2022-11-25T08:04:08;22.67;;;20.50;;
3050;SDS011;1535;51.098;6.414;2022-11-25T08:06:37;20.37;;;18.80;;
3050;SDS011;1535;51.098;6.414;2022-11-25T08:09:07;21.20;;;19.63;;
3050;SDS011;1535;51.098;6.414;2022-11-25T08:11:36;21.23;;;19.30;;
3050;SDS011;1535;51.098;6.414;2022-11-25T08:14:03;21.40;;;19.73;;
3050;SDS011;1535;51.098;6.414;2022-11-25T08:16:31;19.97;;;18.50;;
3050;SDS011;1535;51.098;6.414;2022-11-25T08:18:59;20.57;;;18.47;;
3050;SDS011;1535;51.098;6.414;2022-11-25T08:21:30;20.53;;;18.60;;
3050;SDS011;1535;51.098;6.414;2022-11-25T08:23:56;19.70;;;18.20;;
3050;SDS011;1535;51.098;6.414;2022-11-25T08:26:24;19.43;;;17.90;;
3050;SDS011;1535;51.098;6.414;2022-11-25T08:28:54;20.23;;;18.30;;
3050;SDS011;1535;51.098;6.414;2022-11-25T08:31:23;18.40;;;16.87;;
3050;SDS011;1535;51.098;6.414;2022-11-25T08:33:51;18.70;;;17.40;;
3050;SDS011;1535;51.098;6.414;2022-11-25T08:36:18;17.43;;;15.93;;
3050;SDS011;1535;51.098;6.414;2022-11-25T08:38:48;17.63;;;16.03;;
3050;SDS011;1535;51.098;6.414;2022-11-25T08:41:19;18.30;;;16.00;;
3050;SDS011;1535;51.098;6.414;2022-11-25T08:43:48;16.90;;;15.10;;
3050;SDS011;1535;51.098;6.414;2022-11-25T08:46:16;16.30;;;15.00;;
3050;SDS011;1535;51.098;6.414;2022-11-25T08:48:45;20.80;;;17.70;;
3050;SDS011;1535;51.098;6.414;2022-11-25T08:51:14;16.57;;;15.27;;
3050;SDS011;1535;51.098;6.414;2022-11-25T08:53:43;17.93;;;15.50;;
3050;SDS011;1535;51.098;6.414;2022-11-25T08:56:13;17.80;;;15.90;;
3050;SDS011;1535;51.098;6.414;2022-11-25T08:58:40;18.23;;;16.67;;
3050;SDS011;1535;51.098;6.414;2022-11-25T09:01:07;17.93;;;16.40;;
3050;SDS011;1535;51.098;6.414;2022-11-25T09:03:35;29.43;;;16.13;;
3050;SDS011;1535;51.098;6.414;2022-11-25T09:06:04;17.37;;;15.80;;
3050;SDS011;1535;51.098;6.414;2022-11-25T09:08:32;20.00;;;15.67;;
3050;SDS011;1535;51.098;6.414;2022-11-25T09:11:00;17.10;;;15.60;;
3050;SDS011;1535;51.098;6.414;2022-11-25T09:13:28;17.13;;;15.93;;
3050;SDS011;1535;51.098;6.414;2022-11-25T09:15:55;16.50;;;15.20;;
3050;SDS011;1535;51.098;6.414;2022-11-25T09:18:22;18.80;;;15.73;;
3050;SDS011;1535;51.098;6.414;2022-11-25T09:20:50;20.63;;;17.03;;
3050;SDS011;1535;51.098;6.414;2022-11-25T09:23:17;17.47;;;15.93;;
3050;SDS011;1535;51.098;6.414;2022-11-25T09:25:49;16.73;;;15.20;;
3050;SDS011;1535;51.098;6.414;2022-11-25T09:28:17;23.23;;;16.40;;
3050;SDS011;1535;51.098;6.414;2022-11-25T09:30:45;18.23;;;15.17;;
3050;SDS011;1535;51.098;6.414;2022-11-25T09:33:12;19.60;;;15.80;;
3050;SDS011;1535;51.098;6.414;2022-11-25T09:35:39;17.70;;;16.10;;
3050;SDS011;1535;51.098;6.414;2022-11-25T09:38:06;15.13;;;14.03;;
3050;SDS011;1535;51.098;6.414;2022-11-25T09:40:33;17.00;;;15.20;;
3050;SDS011;1535;51.098;6.414;2022-11-25T09:43:10;16.07;;;14.53;;
3050;SDS011;1535;51.098;6.414;2022-11-25T09:46:05;26.23;;;15.40;;
3050;SDS011;1535;51.098;6.414;2022-11-25T09:48:58;17.60;;;15.90;;
3050;SDS011;1535;51.098;6.414;2022-11-25T09:51:29;28.73;;;16.20;;
3050;SDS011;1535;51.098;6.414;2022-11-25T09:54:03;17.63;;;15.83;;
3050;SDS011;1535;51.098;6.414;2022-11-25T09:56:37;17.30;;;14.50;;
3050;SDS011;1535;51.098;6.414;2022-11-25T09:59:10;16.77;;;15.20;;
3050;SDS011;1535;51.098;6.414;2022-11-25T10:01:45;24.27;;;15.97;;
3050;SDS011;1535;51.098;6.414;2022-11-25T10:04:14;16.53;;;15.13;;
3050;SDS011;1535;51.098;6.414;2022-11-25T10:06:47;28.93;;;15.30;;
3050;SDS011;1535;51.098;6.414;2022-11-25T10:09:18;16.97;;;15.03;;
3050;SDS011;1535;51.098;6.414;2022-11-25T10:11:50;15.87;;;14.13;;
3050;SDS011;1535;51.098;6.414;2022-11-25T10:14:20;19.13;;;15.03;;
3050;SDS011;1535;51.098;6.414;2022-11-25T10:16:57;17.17;;;14.50;;
3050;SDS011;1535;51.098;6.414;2022-11-25T10:19:38;20.60;;;13.90;;
3050;SDS011;1535;51.098;6.414;2022-11-25T10:22:22;22.23;;;13.00;;
3050;SDS011;1535;51.098;6.414;2022-11-25T10:24:51;17.63;;;13.03;;
3050;SDS011;1535;51.098;6.414;2022-11-25T10:27:22;28.17;;;13.90;;
3050;SDS011;1535;51.098;6.414;2022-11-25T10:29:56;16.67;;;12.47;;
3050;SDS011;1535;51.098;6.414;2022-11-25T10:32:32;18.70;;;13.00;;
3050;SDS011;1535;51.098;6.414;2022-11-25T10:35:07;25.20;;;13.60;;
3050;SDS011;1535;51.098;6.414;2022-11-25T10:37:43;15.53;;;13.30;;
3050;SDS011;1535;51.098;6.414;2022-11-25T10:40:14;17.80;;;12.93;;
3050;SDS011;1535;51.098;6.414;2022-11-25T10:42:42;18.50;;;13.03;;
3050;SDS011;1535;51.098;6.414;2022-11-25T10:45:09;21.73;;;14.40;;
3050;SDS011;1535;51.098;6.414;2022-11-25T10:47:45;16.40;;;12.23;;
3050;SDS011;1535;51.098;6.414;2022-11-25T10:50:24;15.37;;;13.47;;
3050;SDS011;1535;51.098;6.414;2022-11-25T10:52:58;15.20;;;13.00;;
3050;SDS011;1535;51.098;6.414;2022-11-25T10:55:28;22.90;;;12.93;;
3050;SDS011;1535;51.098;6.414;2022-11-25T10:57:56;16.40;;;12.17;;
3050;SDS011;1535;51.098;6.414;2022-11-25T11:00:28;14.30;;;12.03;;
3050;SDS011;1535;51.098;6.414;2022-11-25T11:02:59;22.97;;;11.27;;
3050;SDS011;1535;51.098;6.414;2022-11-25T11:05:42;17.53;;;11.97;;
3050;SDS011;1535;51.098;6.414;2022-11-25T11:08:15;16.73;;;12.40;;
3050;SDS011;1535;51.098;6.414;2022-11-25T11:10:44;21.37;;;13.03;;
3050;SDS011;1535;51.098;6.414;2022-11-25T11:13:20;18.30;;;13.40;;
3050;SDS011;1535;51.098;6.414;2022-11-25T11:15:50;12.93;;;11.93;;
3050;SDS011;1535;51.098;6.414;2022-11-25T11:18:24;24.13;;;12.57;;
3050;SDS011;1535;51.098;6.414;2022-11-25T11:20:53;19.10;;;14.37;;
3050;SDS011;1535;51.098;6.414;2022-11-25T11:23:21;16.67;;;12.77;;
3050;SDS011;1535;51.098;6.414;2022-11-25T11:25:56;13.83;;;12.83;;
3050;SDS011;1535;51.098;6.414;2022-11-25T11:28:26;21.73;;;13.43;;
3050;SDS011;1535;51.098;6.414;2022-11-25T11:30:57;16.57;;;13.90;;
3050;SDS011;1535;51.098;6.414;2022-11-25T11:33:29;15.57;;;13.97;;
3050;SDS011;1535;51.098;6.414;2022-11-25T11:36:00;19.07;;;14.43;;
3050;SDS011;1535;51.098;6.414;2022-11-25T11:38:36;15.23;;;13.73;;
3050;SDS011;1535;51.098;6.414;2022-11-25T11:41:12;15.63;;;13.90;;
3050;SDS011;1535;51.098;6.414;2022-11-25T11:43:51;16.23;;;14.70;;
3050;SDS011;1535;51.098;6.414;2022-11-25T11:46:32;16.27;;;14.60;;
3050;SDS011;1535;51.098;6.414;2022-11-25T11:49:16;16.60;;;14.40;;
3050;SDS011;1535;51.098;6.414;2022-11-25T11:52:03;19.90;;;14.70;;
3050;SDS011;1535;51.098;6.414;2022-11-25T11:54:35;16.27;;;14.67;;
3050;SDS011;1535;51.098;6.414;2022-11-25T11:57:12;17.40;;;14.80;;
3050;SDS011;1535;51.098;6.414;2022-11-25T11:59:47;17.10;;;15.47;;
3050;SDS011;1535;51.098;6.414;2022-11-25T12:02:22;17.80;;;16.00;;
3050;SDS011;1535;51.098;6.414;2022-11-25T12:05:01;20.20;;;15.93;;
3050;SDS011;1535;51.098;6.414;2022-11-25T12:07:38;17.93;;;16.43;;
3050;SDS011;1535;51.098;6.414;2022-11-25T12:10:14;17.80;;;16.10;;
3050;SDS011;1535;51.098;6.414;2022-11-25T12:12:49;20.13;;;16.63;;
3050;SDS011;1535;51.098;6.414;2022-11-25T12:15:21;17.93;;;16.23;;
3050;SDS011;1535;51.098;6.414;2022-11-25T12:17:53;16.80;;;15.13;;
3050;SDS011;1535;51.098;6.414;2022-11-25T12:20:29;17.80;;;15.97;;
3050;SDS011;1535;51.098;6.414;2022-11-25T12:23:04;16.83;;;15.20;;
3050;SDS011;1535;51.098;6.414;2022-11-25T12:25:36;18.53;;;16.67;;
3050;SDS011;1535;51.098;6.414;2022-11-25T12:28:06;17.27;;;15.87;;
3050;SDS011;1535;51.098;6.414;2022-11-25T12:30:39;22.97;;;15.90;;
3050;SDS011;1535;51.098;6.414;2022-11-25T12:33:11;17.23;;;15.80;;
3050;SDS011;1535;51.098;6.414;2022-11-25T12:35:50;16.80;;;15.40;;
3050;SDS011;1535;51.098;6.414;2022-11-25T12:38:24;17.60;;;16.20;;
3050;SDS011;1535;51.098;6.414;2022-11-25T12:41:01;17.03;;;15.60;;
3050;SDS011;1535;51.098;6.414;2022-11-25T12:43:38;17.87;;;15.60;;
3050;SDS011;1535;51.098;6.414;2022-11-25T12:46:16;17.43;;;15.73;;
3050;SDS011;1535;51.098;6.414;2022-11-25T12:48:49;18.73;;;15.80;;
3050;SDS011;1535;51.098;6.414;2022-11-25T12:51:30;17.07;;;15.87;;
3050;SDS011;1535;51.098;6.414;2022-11-25T12:54:16;18.03;;;16.43;;
3050;SDS011;1535;51.098;6.414;2022-11-25T12:57:02;17.33;;;15.80;;
3050;SDS011;1535;51.098;6.414;2022-11-25T13:00:01;18.57;;;16.77;;
3050;SDS011;1535;51.098;6.414;2022-11-25T13:02:44;16.33;;;15.33;;
3050;SDS011;1535;51.098;6.414;2022-11-25T13:05:36;19.50;;;16.60;;
3050;SDS011;1535;51.098;6.414;2022-11-25T13:08:25;17.77;;;16.30;;
3050;SDS011;1535;51.098;6.414;2022-11-25T13:11:06;17.97;;;16.70;;
3050;SDS011;1535;51.098;6.414;2022-11-25T13:13:46;17.33;;;15.87;;
3050;SDS011;1535;51.098;6.414;2022-11-25T13:16:18;17.80;;;16.40;;
3050;SDS011;1535;51.098;6.414;2022-11-25T13:18:46;17.73;;;16.13;;
3050;SDS011;1535;51.098;6.414;2022-11-25T13:21:13;16.17;;;15.13;;
3050;SDS011;1535;51.098;6.414;2022-11-25T13:23:46;15.93;;;14.90;;
3050;SDS011;1535;51.098;6.414;2022-11-25T13:26:44;16.50;;;15.40;;
3050;SDS011;1535;51.098;6.414;2022-11-25T13:32:31;17.43;;;15.43;;
3050;SDS011;1535;51.098;6.414;2022-11-25T13:37:56;16.80;;;15.40;;
3050;SDS011;1535;51.098;6.414;2022-11-25T13:40:31;17.10;;;15.47;;
3050;SDS011;1535;51.098;6.414;2022-11-25T13:43:02;17.37;;;16.03;;
3050;SDS011;1535;51.098;6.414;2022-11-25T13:45:31;17.53;;;16.00;;
3050;SDS011;1535;51.098;6.414;2022-11-25T13:48:03;18.07;;;16.13;;
3050;SDS011;1535;51.098;6.414;2022-11-25T13:50:31;17.47;;;15.83;;
3050;SDS011;1535;51.098;6.414;2022-11-25T13:52:59;17.70;;;16.27;;
3050;SDS011;1535;51.098;6.414;2022-11-25T13:55:33;18.33;;;16.30;;
3050;SDS011;1535;51.098;6.414;2022-11-25T13:58:15;17.23;;;15.47;;
3050;SDS011;1535;51.098;6.414;2022-11-25T14:00:48;16.00;;;14.73;;
3050;SDS011;1535;51.098;6.414;2022-11-25T14:03:46;16.47;;;15.00;;
3050;SDS011;1535;51.098;6.414;2022-11-25T14:09:36;16.20;;;14.90;;
3050;SDS011;1535;51.098;6.414;2022-11-25T14:12:25;16.10;;;14.60;;
3050;SDS011;1535;51.098;6.414;2022-11-25T14:15:01;16.40;;;15.20;;
3050;SDS011;1535;51.098;6.414;2022-11-25T14:17:48;17.30;;;15.57;;
3050;SDS011;1535;51.098;6.414;2022-11-25T14:20:33;16.13;;;14.87;;
3050;SDS011;1535;51.098;6.414;2022-11-25T14:23:15;16.10;;;14.90;;
3050;SDS011;1535;51.098;6.414;2022-11-25T14:26:07;16.40;;;15.07;;
3050;SDS011;1535;51.098;6.414;2022-11-25T14:28:40;18.43;;;15.80;;
3050;SDS011;1535;51.098;6.414;2022-11-25T14:31:14;15.53;;;14.40;;
3050;SDS011;1535;51.098;6.414;2022-11-25T14:33:46;16.57;;;15.00;;
3050;SDS011;1535;51.098;6.414;2022-11-25T14:36:18;15.33;;;13.80;;
3050;SDS011;1535;51.098;6.414;2022-11-25T14:38:51;16.37;;;14.83;;
3050;SDS011;1535;51.098;6.414;2022-11-25T14:41:23;15.60;;;14.10;;
3050;SDS011;1535;51.098;6.414;2022-11-25T14:43:58;15.97;;;14.60;;
3050;SDS011;1535;51.098;6.414;2022-11-25T14:46:30;15.33;;;13.97;;
3050;SDS011;1535;51.098;6.414;2022-11-25T14:48:57;15.13;;;13.80;;
3050;SDS011;1535;51.098;6.414;2022-11-25T14:51:26;18.40;;;15.60;;
3050;SDS011;1535;51.098;6.414;2022-11-25T14:53:58;16.40;;;15.07;;
3050;SDS011;1535;51.098;6.414;2022-11-25T14:56:26;15.40;;;14.37;;
3050;SDS011;1535;51.098;6.414;2022-11-25T14:58:57;15.47;;;13.90;;
3050;SDS011;1535;51.098;6.414;2022-11-25T15:01:25;15.30;;;14.30;;
3050;SDS011;1535;51.098;6.414;2022-11-25T15:04:00;15.33;;;14.23;;
3050;SDS011;1535;51.098;6.414;2022-11-25T15:06:31;15.67;;;14.27;;
3050;SDS011;1535;51.098;6.414;2022-11-25T15:08:59;15.57;;;14.37;;
3050;SDS011;1535;51.098;6.414;2022-11-25T15:11:27;15.90;;;14.70;;
3050;SDS011;1535;51.098;6.414;2022-11-25T15:13:59;15.40;;;14.00;;
3050;SDS011;1535;51.098;6.414;2022-11-25T15:16:31;16.83;;;15.20;;
3050;SDS011;1535;51.098;6.414;2022-11-25T15:19:00;15.47;;;13.50;;
3050;SDS011;1535;51.098;6.414;2022-11-25T15:21:29;15.93;;;14.40;;